You are not logged in, Click here to log in
約翰·甘迺迪國際機場JFK / KJFK 美國 紐約市
ICAO: KJFK Country: 美國 紐約市
Latitude: 40.6398 Longitude: -73.7787
Total Arrivals: 26 Total Departures: 22
Latest Arrival: SQ5832 (RCTP-KJFK)CHANG SHENG. HSIUNG Latest Departure: DL460 (KJFK-KATL)ALAN. LIU
Scenery:
METAR : KJFK 131051Z 07006KT 10SM BKN032 OVC055 02/M02 A3048 RMK AO2 SLP322 T00171017 $

約翰·甘迺迪國際機場JFK

You are accessing this site from IP address 100.26.176.182. Virtual Airline. CMS by phpVMS.Website designed by Zumeweb and edited by Theo Bearman.
There is 0 User(s) Online: | and 2 Guest(s) Online.
All information on this site is for fight simulation purposes only. This site is for flight logging for pilots of Virtual Airline&模擬飛行論壇 FlySim only.